Time;durP1;ratioP1;P1;durP2;ratioP2;P2;SDS_P1;SDS_P2;PMS_P1;PMS_P2;Temp;Humidity;BMP_temperature;BMP_pressure;BME280_temperature;BME280_humidity;BME280_pressure;Samples;Min_cycle;Max_cycle;Signal;HPM_P1;HPM_P2
2022/05/10 00:00:02;;;;;;;5.8;5.2;;;;;;;;;;;;;
2022/05/10 00:02:28;;;;;;;6.5;5.5;;;;;;;;;;;;;
2022/05/10 00:04:54;;;;;;;7.3;5.7;;;;;;;;;;;;;
2022/05/10 00:07:20;;;;;;;6.7;6;;;;;;;;;;;;;
2022/05/10 00:09:44;;;;;;;6.3;5.7;;;;;;;;;;;;;
2022/05/10 00:12:10;;;;;;;6.6;5.6;;;;;;;;;;;;;
2022/05/10 00:14:35;;;;;;;5.8;5.2;;;;;;;;;;;;;
2022/05/10 00:17:00;;;;;;;6.3;5.2;;;;;;;;;;;;;
2022/05/10 00:19:27;;;;;;;6.4;5.8;;;;;;;;;;;;;
2022/05/10 00:21:53;;;;;;;6.9;5.6;;;;;;;;;;;;;
2022/05/10 00:24:18;;;;;;;6.2;5.6;;;;;;;;;;;;;
2022/05/10 00:26:44;;;;;;;5.6;4.8;;;;;;;;;;;;;
2022/05/10 00:29:09;;;;;;;8.2;5.5;;;;;;;;;;;;;
2022/05/10 00:31:34;;;;;;;5.5;4.9;;;;;;;;;;;;;
2022/05/10 00:33:59;;;;;;;6.4;5.1;;;;;;;;;;;;;
2022/05/10 00:36:27;;;;;;;9.3;6.8;;;;;;;;;;;;;
2022/05/10 00:38:52;;;;;;;8.5;5.9;;;;;;;;;;;;;
2022/05/10 00:41:18;;;;;;;8.5;5.9;;;;;;;;;;;;;
2022/05/10 00:43:43;;;;;;;7.4;5.3;;;;;;;;;;;;;
2022/05/10 00:46:08;;;;;;;6.7;5.3;;;;;;;;;;;;;
2022/05/10 00:48:34;;;;;;;6.9;5.2;;;;;;;;;;;;;
2022/05/10 00:50:59;;;;;;;6.5;4.9;;;;;;;;;;;;;
2022/05/10 00:53:25;;;;;;;5.6;4.7;;;;;;;;;;;;;
2022/05/10 00:55:50;;;;;;;7.5;5;;;;;;;;;;;;;
2022/05/10 00:58:15;;;;;;;5.9;5.3;;;;;;;;;;;;;
2022/05/10 01:00:40;;;;;;;5.4;4.4;;;;;;;;;;;;;
2022/05/10 01:03:05;;;;;;;5.4;4.8;;;;;;;;;;;;;
2022/05/10 01:05:32;;;;;;;6.1;5.1;;;;;;;;;;;;;
2022/05/10 01:07:58;;;;;;;6.9;5.2;;;;;;;;;;;;;
2022/05/10 01:10:23;;;;;;;6.5;5;;;;;;;;;;;;;
2022/05/10 01:12:48;;;;;;;6.6;5.1;;;;;;;;;;;;;
2022/05/10 01:15:14;;;;;;;5.3;4.8;;;;;;;;;;;;;
2022/05/10 01:17:39;;;;;;;5.5;4.9;;;;;;;;;;;;;
2022/05/10 01:20:04;;;;;;;6.3;5;;;;;;;;;;;;;
2022/05/10 01:22:29;;;;;;;6.8;4.8;;;;;;;;;;;;;
2022/05/10 01:24:55;;;;;;;5.2;4.6;;;;;;;;;;;;;
2022/05/10 01:27:20;;;;;;;6.4;4.9;;;;;;;;;;;;;
2022/05/10 01:29:45;;;;;;;5.5;5;;;;;;;;;;;;;
2022/05/10 01:34:35;;;;;;;5.3;4.8;;;;;;;;;;;;;
2022/05/10 01:37:02;;;;;;;5.5;4.8;;;;;;;;;;;;;
2022/05/10 01:39:27;;;;;;;5.7;4.8;;;;;;;;;;;;;
2022/05/10 01:41:52;;;;;;;6.7;4.8;;;;;;;;;;;;;
2022/05/10 01:44:17;;;;;;;5.4;4.6;;;;;;;;;;;;;
2022/05/10 01:46:43;;;;;;;4.7;4.2;;;;;;;;;;;;;
2022/05/10 01:49:08;;;;;;;5.7;4.6;;;;;;;;;;;;;
2022/05/10 01:51:33;;;;;;;5.3;4.5;;;;;;;;;;;;;
2022/05/10 01:53:58;;;;;;;5.2;4.3;;;;;;;;;;;;;
2022/05/10 01:56:24;;;;;;;5.2;4.5;;;;;;;;;;;;;
2022/05/10 01:58:49;;;;;;;4.4;4;;;;;;;;;;;;;
2022/05/10 02:01:15;;;;;;;4.8;4.3;;;;;;;;;;;;;
2022/05/10 02:03:42;;;;;;;4.8;4.2;;;;;;;;;;;;;
2022/05/10 02:06:05;;;;;;;4.9;4;;;;;;;;;;;;;
2022/05/10 02:08:30;;;;;;;4.7;4;;;;;;;;;;;;;
2022/05/10 02:10:55;;;;;;;5.2;3.9;;;;;;;;;;;;;
2022/05/10 02:13:22;;;;;;;4.4;4;;;;;;;;;;;;;
2022/05/10 02:15:47;;;;;;;4.8;4.3;;;;;;;;;;;;;
2022/05/10 02:18:14;;;;;;;5.4;4.6;;;;;;;;;;;;;
2022/05/10 02:20:40;;;;;;;6.1;5.2;;;;;;;;;;;;;
2022/05/10 02:23:06;;;;;;;5.6;5;;;;;;;;;;;;;
2022/05/10 02:25:31;;;;;;;6.8;5;;;;;;;;;;;;;
2022/05/10 02:27:59;;;;;;;9.1;5.8;;;;;;;;;;;;;
2022/05/10 02:30:24;;;;;;;7.8;5.4;;;;;;;;;;;;;
2022/05/10 02:33:31;;;;;;;7.6;5.5;;;;;;;;;;;;;
2022/05/10 02:35:14;;;;;;;5.4;4.5;;;;;;;;;;;;;
2022/05/10 02:37:40;;;;;;;7.2;5.2;;;;;;;;;;;;;
2022/05/10 02:40:04;;;;;;;5.7;4.5;;;;;;;;;;;;;
2022/05/10 02:42:31;;;;;;;5.7;4.7;;;;;;;;;;;;;
2022/05/10 02:44:56;;;;;;;8.6;4.9;;;;;;;;;;;;;
2022/05/10 02:47:22;;;;;;;6;4.7;;;;;;;;;;;;;
2022/05/10 02:49:47;;;;;;;4.5;4.1;;;;;;;;;;;;;
2022/05/10 02:52:12;;;;;;;5.2;4.1;;;;;;;;;;;;;
2022/05/10 02:54:39;;;;;;;5.3;4.4;;;;;;;;;;;;;
2022/05/10 02:57:04;;;;;;;7.4;4;;;;;;;;;;;;;
2022/05/10 02:59:30;;;;;;;4.8;4.1;;;;;;;;;;;;;
2022/05/10 03:01:55;;;;;;;5.6;4.5;;;;;;;;;;;;;
2022/05/10 03:04:23;;;;;;;4.1;3.7;;;;;;;;;;;;;
2022/05/10 03:06:48;;;;;;;6;4.2;;;;;;;;;;;;;
2022/05/10 03:09:14;;;;;;;4.5;4;;;;;;;;;;;;;
2022/05/10 03:11:39;;;;;;;5.5;4;;;;;;;;;;;;;
2022/05/10 03:14:05;;;;;;;5.3;4.2;;;;;;;;;;;;;
2022/05/10 03:16:30;;;;;;;4.6;4.1;;;;;;;;;;;;;
2022/05/10 03:18:55;;;;;;;4.9;3.9;;;;;;;;;;;;;
2022/05/10 03:21:20;;;;;;;6.3;4.1;;;;;;;;;;;;;
2022/05/10 03:23:46;;;;;;;4.5;3.9;;;;;;;;;;;;;
2022/05/10 03:26:12;;;;;;;4.4;3.8;;;;;;;;;;;;;
2022/05/10 03:28:37;;;;;;;6.9;4.2;;;;;;;;;;;;;
2022/05/10 03:31:02;;;;;;;5.3;3.8;;;;;;;;;;;;;
2022/05/10 03:33:27;;;;;;;4.7;3.9;;;;;;;;;;;;;
2022/05/10 03:35:55;;;;;;;4.9;3.8;;;;;;;;;;;;;
2022/05/10 03:38:20;;;;;;;5;3.9;;;;;;;;;;;;;
2022/05/10 03:40:46;;;;;;;6.8;4.2;;;;;;;;;;;;;
2022/05/10 03:43:11;;;;;;;10.3;4;;;;;;;;;;;;;
2022/05/10 03:45:37;;;;;;;7.1;4.1;;;;;;;;;;;;;
2022/05/10 03:48:03;;;;;;;5.5;4;;;;;;;;;;;;;
2022/05/10 03:50:29;;;;;;;5.8;4.7;;;;;;;;;;;;;
2022/05/10 03:52:54;;;;;;;6.7;4.3;;;;;;;;;;;;;
2022/05/10 03:55:19;;;;;;;4.2;3.6;;;;;;;;;;;;;
2022/05/10 03:57:45;;;;;;;5.3;3.9;;;;;;;;;;;;;
2022/05/10 04:02:34;;;;;;;5.8;4.1;;;;;;;8.99;94.37012;944.0238;;;;
2022/05/10 04:05:03;;;;;;;5.3;3.7;;;;;;;9;94.38379;944.1353;;;;
2022/05/10 04:07:29;;;;;;;4.2;3.8;;;;;;;9.05;94.11133;944.1264;;;;
2022/05/10 04:09:56;;;;;;;6;4.4;;;;;;;9.18;93.5127;944.1241;;;;
2022/05/10 04:12:21;;;;;;;9;6;;;;;;;8.99;94.53027;944.1049;;;;
2022/05/10 04:14:50;;;;;;;9.1;6.8;;;;;;;9.04;94.63086;944.119;;;;
2022/05/10 04:17:15;;;;;;;9;6.1;;;;;;;8.97;94.55078;944.0997;;;;
2022/05/10 04:19:44;;;;;;;6.5;5.4;;;;;;;8.89;95.03125;944.1127;;;;
2022/05/10 04:22:09;;;;;;;9;5.7;;;;;;;8.81;95.5;944.1397;;;;
2022/05/10 04:24:35;;;;;;;7.7;5.5;;;;;;;8.78;96.08594;944.1358;;;;
2022/05/10 04:27:04;;;;;;;6.7;5.1;;;;;;;8.97;95.7207;944.1606;;;;
2022/05/10 04:29:29;;;;;;;10.8;6.7;;;;;;;8.98;95.38086;944.1492;;;;
2022/05/10 04:31:57;;;;;;;7.9;5.3;;;;;;;9.22;94.69336;944.1872;;;;
2022/05/10 04:34:23;;;;;;;7;4.9;;;;;;;9.3;93.91602;944.1591;;;;
2022/05/10 04:36:54;;;;;;;5.7;4.3;;;;;;;9.38;93.37598;944.2413;;;;
2022/05/10 04:39:23;;;;;;;5.8;4.7;;;;;;;9.42;92.5293;944.2599;;;;
2022/05/10 04:41:57;;;;;;;6.4;4.6;;;;;;;9.26;92.51758;944.2742;;;;
2022/05/10 04:44:26;;;;;;;5.6;4.2;;;;;;;9.12;93.11426;944.2324;;;;
2022/05/10 04:46:51;;;;;;;6.8;4.5;;;;;;;9.15;92.97168;944.2528;;;;
2022/05/10 04:49:21;;;;;;;4.6;4.1;;;;;;;9.13;92.64941;944.2054;;;;
2022/05/10 04:51:46;;;;;;;5;4.3;;;;;;;9;93.52148;944.2267;;;;
2022/05/10 04:54:17;;;;;;;8.2;4.8;;;;;;;8.98;94.24316;944.1858;;;;
2022/05/10 04:56:46;;;;;;;10.1;4.9;;;;;;;9.09;94.03906;944.2452;;;;
2022/05/10 04:59:11;;;;;;;7.1;4.5;;;;;;;9.2;93.59863;944.2199;;;;
2022/05/10 05:01:41;;;;;;;8;4.8;;;;;;;9.12;94.24121;944.1267;;;;
2022/05/10 05:04:13;;;;;;;6.9;4;;;;;;;9.12;94.33203;944.1426;;;;
2022/05/10 05:06:39;;;;;;;5.9;4.3;;;;;;;9.2;94.34766;944.0934;;;;
2022/05/10 05:09:03;;;;;;;8.4;4.4;;;;;;;9.29;94.39258;944.178;;;;
2022/05/10 05:11:30;;;;;;;6.1;3.7;;;;;;;9.32;94.40918;944.1436;;;;
2022/05/10 05:13:55;;;;;;;5.9;4.4;;;;;;;9.21;95.1123;944.1375;;;;
2022/05/10 05:16:28;;;;;;;6.3;4.4;;;;;;;9.27;95.05762;944.1408;;;;
2022/05/10 05:18:59;;;;;;;8.1;4.8;;;;;;;9.59;96.63379;944.0919;;;;
2022/05/10 05:21:30;;;;;;;4.5;3.3;;;;;;;10.79;92.55957;944.0465;;;;
2022/05/10 05:23:59;;;;;;;5.4;2.6;;;;;;;11.81;85.83789;944.0029;;;;
2022/05/10 05:26:24;;;;;;;3.5;2.4;;;;;;;;;;;;;
2022/05/10 05:28:50;;;;;;;7.6;2.7;;;;;;;;;;;;;
2022/05/10 05:31:15;;;;;;;2.6;2.4;;;;;;;;;;;;;
2022/05/10 05:33:44;;;;;;;3.1;2.3;;;;;;;;;;;;;
2022/05/10 05:36:09;;;;;;;3.2;2.1;;;;;;;;;;;;;
2022/05/10 05:38:36;;;;;;;4.2;2.7;;;;;;;;;;;;;
2022/05/10 05:41:01;;;;;;;5.8;3.3;;;;;;;;;;;;;
2022/05/10 05:43:29;;;;;;;5.3;2.9;;;;;;;;;;;;;
2022/05/10 05:45:54;;;;;;;3.7;2.2;;;;;;;;;;;;;
2022/05/10 05:48:22;;;;;;;4;1.8;;;;;;;;;;;;;
2022/05/10 05:50:47;;;;;;;2.1;1.7;;;;;;;;;;;;;
2022/05/10 05:53:15;;;;;;;4.2;2.3;;;;;;;;;;;;;
2022/05/10 05:55:42;;;;;;;4.6;2.1;;;;;;;;;;;;;
2022/05/10 05:58:07;;;;;;;2.9;1.9;;;;;;;;;;;;;
2022/05/10 06:00:33;;;;;;;2.4;1.8;;;;;;;;;;;;;
2022/05/10 06:03:00;;;;;;;2.9;1.7;;;;;;;;;;;;;
2022/05/10 06:05:25;;;;;;;2.5;2;;;;;;;;;;;;;
2022/05/10 06:07:52;;;;;;;2.9;2;;;;;;;;;;;;;
2022/05/10 06:10:17;;;;;;;5.1;2.5;;;;;;;;;;;;;
2022/05/10 06:12:44;;;;;;;2.4;1.9;;;;;;;;;;;;;
2022/05/10 06:15:10;;;;;;;2.1;1.6;;;;;;;;;;;;;
2022/05/10 06:17:34;;;;;;;1.6;1.5;;;;;;;;;;;;;
2022/05/10 06:20:00;;;;;;;3.5;1.6;;;;;;;;;;;;;
2022/05/10 06:22:25;;;;;;;3.5;1.8;;;;;;;;;;;;;
2022/05/10 06:24:51;;;;;;;3;1.7;;;;;;;;;;;;;
2022/05/10 06:27:16;;;;;;;1.6;1.2;;;;;;;;;;;;;
2022/05/10 06:29:41;;;;;;;1.6;1.5;;;;;;;;;;;;;
2022/05/10 06:32:06;;;;;;;2.9;1.6;;;;;;;;;;;;;
2022/05/10 06:34:34;;;;;;;2.2;1.4;;;;;;;;;;;;;
2022/05/10 06:36:59;;;;;;;1.8;1.3;;;;;;;;;;;;;
2022/05/10 06:39:26;;;;;;;2.6;1.5;;;;;;;;;;;;;
2022/05/10 06:41:50;;;;;;;2.5;1.5;;;;;;;;;;;;;
2022/05/10 06:44:17;;;;;;;1.7;1.6;;;;;;;;;;;;;
2022/05/10 06:46:42;;;;;;;3.5;1.9;;;;;;;;;;;;;
2022/05/10 06:49:09;;;;;;;1.7;1.5;;;;;;;;;;;;;
2022/05/10 06:51:32;;;;;;;1.7;1.5;;;;;;;;;;;;;
2022/05/10 06:53:58;;;;;;;4.7;1.8;;;;;;;;;;;;;
2022/05/10 06:56:23;;;;;;;1.9;1.3;;;;;;;;;;;;;
2022/05/10 06:58:49;;;;;;;1.3;1.2;;;;;;;;;;;;;
2022/05/10 07:01:14;;;;;;;2.5;1.3;;;;;;;;;;;;;
2022/05/10 07:03:40;;;;;;;3;1.4;;;;;;;;;;;;;
2022/05/10 07:06:05;;;;;;;3.2;1.6;;;;;;;;;;;;;
2022/05/10 07:08:31;;;;;;;1.9;1.4;;;;;;;;;;;;;
2022/05/10 07:10:57;;;;;;;1.3;1.2;;;;;;;;;;;;;
2022/05/10 07:13:22;;;;;;;2.4;1.5;;;;;;;;;;;;;
2022/05/10 07:15:47;;;;;;;1.4;1.3;;;;;;;;;;;;;
2022/05/10 07:18:14;;;;;;;2;1.2;;;;;;;;;;;;;
2022/05/10 07:20:39;;;;;;;1.2;1.1;;;;;;;;;;;;;
2022/05/10 07:23:04;;;;;;;2.9;1.5;;;;;;;;;;;;;
2022/05/10 07:25:29;;;;;;;2.4;1.2;;;;;;;;;;;;;
2022/05/10 07:27:55;;;;;;;2.9;1.5;;;;;;;;;;;;;
2022/05/10 07:30:21;;;;;;;4.7;1.7;;;;;;;;;;;;;
2022/05/10 07:32:48;;;;;;;1.7;1.2;;;;;;;;;;;;;
2022/05/10 07:35:13;;;;;;;1.4;1.3;;;;;;;;;;;;;
2022/05/10 07:37:39;;;;;;;1.3;1.1;;;;;;;;;;;;;
2022/05/10 07:40:03;;;;;;;1.3;1.2;;;;;;;;;;;;;
2022/05/10 07:42:30;;;;;;;1.5;1.2;;;;;;;;;;;;;
2022/05/10 07:44:56;;;;;;;2;1.4;;;;;;;;;;;;;
2022/05/10 07:47:21;;;;;;;1.8;1.3;;;;;;;;;;;;;
2022/05/10 07:49:46;;;;;;;2.1;1.3;;;;;;;;;;;;;
2022/05/10 07:52:11;;;;;;;2.5;1.2;;;;;;;;;;;;;
2022/05/10 07:54:36;;;;;;;4;1.4;;;;;;;;;;;;;
2022/05/10 07:57:03;;;;;;;1.2;1.1;;;;;;;;;;;;;
2022/05/10 07:59:29;;;;;;;2.2;1.3;;;;;;;;;;;;;
2022/05/10 08:01:55;;;;;;;1.3;1.2;;;;;;;;;;;;;
2022/05/10 08:04:20;;;;;;;1.1;1.1;;;;;;;;;;;;;
2022/05/10 08:06:46;;;;;;;1.9;1.3;;;;;;;;;;;;;
2022/05/10 08:09:10;;;;;;;1.2;1.1;;;;;;;;;;;;;
2022/05/10 08:11:36;;;;;;;2.1;1.2;;;;;;;;;;;;;
2022/05/10 08:14:01;;;;;;;2.3;1.7;;;;;;;;;;;;;
2022/05/10 08:16:32;;;;;;;2.9;1.4;;;;;;;;;;;;;
2022/05/10 08:18:51;;;;;;;1.8;1;;;;;;;;;;;;;
2022/05/10 08:21:21;;;;;;;1.4;1.3;;;;;;;;;;;;;
2022/05/10 08:23:47;;;;;;;1.5;1.4;;;;;;;;;;;;;
2022/05/10 08:26:10;;;;;;;1.2;1.1;;;;;;;;;;;;;
2022/05/10 08:28:36;;;;;;;2.8;1.4;;;;;;;;;;;;;
2022/05/10 08:31:00;;;;;;;1.6;1.4;;;;;;;;;;;;;
2022/05/10 08:33:27;;;;;;;2.3;1.3;;;;;;;;;;;;;
2022/05/10 08:35:52;;;;;;;2.4;1.1;;;;;;;;;;;;;
2022/05/10 08:38:18;;;;;;;1.7;1.2;;;;;;;;;;;;;
2022/05/10 08:40:43;;;;;;;1.8;1.3;;;;;;;;;;;;;
2022/05/10 08:43:10;;;;;;;1.7;1.2;;;;;;;;;;;;;
2022/05/10 08:45:35;;;;;;;3.1;1.4;;;;;;;;;;;;;
2022/05/10 08:48:00;;;;;;;2.2;1.3;;;;;;;;;;;;;
2022/05/10 08:50:26;;;;;;;1.3;1.2;;;;;;;;;;;;;
2022/05/10 08:52:52;;;;;;;3.3;1.4;;;;;;;;;;;;;
2022/05/10 08:55:19;;;;;;;1.5;1.4;;;;;;;;;;;;;
2022/05/10 08:57:44;;;;;;;1.3;1.2;;;;;;;;;;;;;
2022/05/10 09:00:13;;;;;;;1.3;1.2;;;;;;;;;;;;;
2022/05/10 09:02:38;;;;;;;2.1;1.1;;;;;;;;;;;;;
2022/05/10 09:05:05;;;;;;;2.5;1.3;;;;;;;;;;;;;
2022/05/10 09:07:30;;;;;;;3.2;1.2;;;;;;;;;;;;;
2022/05/10 09:09:57;;;;;;;1.8;1.3;;;;;;;;;;;;;
2022/05/10 09:12:22;;;;;;;2.2;0.9;;;;;;;;;;;;;
2022/05/10 09:14:47;;;;;;;1.3;1.2;;;;;;;;;;;;;
2022/05/10 09:17:14;;;;;;;2.4;1.2;;;;;;;;;;;;;
2022/05/10 09:19:39;;;;;;;1.9;1;;;;;;;;;;;;;
2022/05/10 09:22:07;;;;;;;3.2;1.1;;;;;;;;;;;;;
2022/05/10 09:24:29;;;;;;;1.2;1;;;;;;;;;;;;;
2022/05/10 09:26:55;;;;;;;1.3;1.2;;;;;;;;;;;;;
2022/05/10 09:29:20;;;;;;;2;1.3;;;;;;;;;;;;;
2022/05/10 09:36:35;;;;;;;1.3;1.2;;;;;;;;;;;;;
2022/05/10 09:39:00;;;;;;;1.3;1.2;;;;;;;;;;;;;
2022/05/10 09:41:26;;;;;;;3.2;1.5;;;;;;;;;;;;;
2022/05/10 09:43:51;;;;;;;2.1;1.4;;;;;;;;;;;;;
2022/05/10 09:46:16;;;;;;;1.2;1.1;;;;;;;;;;;;;
2022/05/10 09:48:42;;;;;;;1.9;1.2;;;;;;;;;;;;;
2022/05/10 09:51:06;;;;;;;2;1.4;;;;;;;;;;;;;
2022/05/10 09:53:32;;;;;;;2.6;1.4;;;;;;;;;;;;;
2022/05/10 09:55:58;;;;;;;2.9;1.3;;;;;;;;;;;;;
2022/05/10 09:58:23;;;;;;;3.1;1.8;;;;;;;;;;;;;
2022/05/10 10:00:52;;;;;;;1.9;1.8;;;;;;;;;;;;;
2022/05/10 10:03:13;;;;;;;4.2;1.9;;;;;;;;;;;;;
2022/05/10 10:05:40;;;;;;;2.7;1.7;;;;;;;;;;;;;
2022/05/10 10:08:07;;;;;;;3;1.9;;;;;;;;;;;;;
2022/05/10 10:10:31;;;;;;;3.1;2;;;;;;;;;;;;;
2022/05/10 10:12:56;;;;;;;2.3;2.1;;;;;;;;;;;;;
2022/05/10 10:15:21;;;;;;;2.3;1.9;;;;;;;;;;;;;
2022/05/10 10:17:46;;;;;;;1.9;1.8;;;;;;;;;;;;;
2022/05/10 10:20:13;;;;;;;4.9;1.7;;;;;;;;;;;;;
2022/05/10 10:22:38;;;;;;;2;1.8;;;;;;;;;;;;;
2022/05/10 10:25:03;;;;;;;1.8;1.7;;;;;;;;;;;;;
2022/05/10 10:27:28;;;;;;;2.2;1.8;;;;;;;;;;;;;
2022/05/10 10:29:54;;;;;;;3.2;1.8;;;;;;;;;;;;;
2022/05/10 10:32:19;;;;;;;2.3;1.7;;;;;;;;;;;;;
2022/05/10 10:34:45;;;;;;;2.1;1.6;;;;;;;;;;;;;
2022/05/10 10:37:09;;;;;;;3.1;2;;;;;;;;;;;;;
2022/05/10 10:39:34;;;;;;;3.3;2;;;;;;;;;;;;;
2022/05/10 10:41:59;;;;;;;3.5;2;;;;;;;;;;;;;
2022/05/10 10:44:25;;;;;;;2.2;2;;;;;;;;;;;;;
2022/05/10 10:46:50;;;;;;;2.4;2.2;;;;;;;;;;;;;
2022/05/10 10:49:15;;;;;;;3.7;2.2;;;;;;;;;;;;;
2022/05/10 10:51:41;;;;;;;3.7;2.1;;;;;;;;;;;;;
2022/05/10 10:54:06;;;;;;;3.9;2.5;;;;;;;;;;;;;
2022/05/10 10:56:31;;;;;;;2.6;2.2;;;;;;;;;;;;;
2022/05/10 10:58:56;;;;;;;3;2.5;;;;;;;;;;;;;
2022/05/10 11:01:21;;;;;;;4;2.4;;;;;;;;;;;;;
2022/05/10 11:03:47;;;;;;;2.4;2.2;;;;;;;;;;;;;
2022/05/10 11:06:13;;;;;;;3.2;2.3;;;;;;;;;;;;;
2022/05/10 11:08:37;;;;;;;2.9;2.5;;;;;;;;;;;;;
2022/05/10 11:11:02;;;;;;;2.7;2.4;;;;;;;;;;;;;
2022/05/10 11:13:27;;;;;;;3.2;2.1;;;;;;;;;;;;;
2022/05/10 11:15:52;;;;;;;3.1;2;;;;;;;;;;;;;
2022/05/10 11:18:17;;;;;;;3.6;2.4;;;;;;;;;;;;;
2022/05/10 11:20:43;;;;;;;2.6;2.3;;;;;;;;;;;;;
2022/05/10 11:23:08;;;;;;;3.8;2.7;;;;;;;;;;;;;
2022/05/10 11:25:33;;;;;;;3.1;2.5;;;;;;;;;;;;;
2022/05/10 11:27:58;;;;;;;3.7;2.5;;;;;;;;;;;;;
2022/05/10 11:30:23;;;;;;;3.2;2.4;;;;;;;;;;;;;
2022/05/10 11:32:48;;;;;;;3.5;2.4;;;;;;;;;;;;;
2022/05/10 11:35:13;;;;;;;3.3;2.6;;;;;;;;;;;;;
2022/05/10 11:37:39;;;;;;;3.8;2.4;;;;;;;;;;;;;
2022/05/10 11:40:09;;;;;;;3.5;2.5;;;;;;;;;;;;;
2022/05/10 11:42:35;;;;;;;3.6;2.3;;;;;;;;;;;;;
2022/05/10 11:45:01;;;;;;;3;2.3;;;;;;;;;;;;;
2022/05/10 11:47:26;;;;;;;5.3;2.8;;;;;;;;;;;;;
2022/05/10 11:49:54;;;;;;;4.4;2.4;;;;;;;;;;;;;
2022/05/10 11:52:22;;;;;;;4.6;2.5;;;;;;;;;;;;;
2022/05/10 11:54:47;;;;;;;2.7;2.5;;;;;;;;;;;;;
2022/05/10 11:57:12;;;;;;;4;2.6;;;;;;;;;;;;;
2022/05/10 11:59:40;;;;;;;2.9;2.6;;;;;;;;;;;;;
2022/05/10 12:02:03;;;;;;;3.2;2.4;;;;;;;;;;;;;
2022/05/10 12:04:31;;;;;;;3.1;2.4;;;;;;;;;;;;;
2022/05/10 12:06:56;;;;;;;3.5;2.6;;;;;;;;;;;;;
2022/05/10 12:09:21;;;;;;;3;2.3;;;;;;;;;;;;;
2022/05/10 12:11:48;;;;;;;3.2;2.4;;;;;;;;;;;;;
2022/05/10 12:21:31;;;;;;;2.9;2.2;;;;;;;;;;;;;
2022/05/10 12:24:11;;;;;;;2.3;2.1;;;;;;;;;;;;;
2022/05/10 12:26:36;;;;;;;2.9;2.6;;;;;;;;;;;;;
2022/05/10 12:29:01;;;;;;;2.5;2.3;;;;;;;;;;;;;
2022/05/10 12:31:28;;;;;;;3.7;2.4;;;;;;;;;;;;;
2022/05/10 12:33:53;;;;;;;2.9;2.5;;;;;;;;;;;;;
2022/05/10 12:36:22;;;;;;;3.1;2.5;;;;;;;;;;;;;
2022/05/10 12:38:48;;;;;;;3.1;2.2;;;;;;;;;;;;;
2022/05/10 12:41:13;;;;;;;3.1;2.3;;;;;;;;;;;;;
2022/05/10 12:43:38;;;;;;;2.8;2.4;;;;;;;;;;;;;
2022/05/10 12:46:06;;;;;;;2.5;2.1;;;;;;;;;;;;;
2022/05/10 12:48:33;;;;;;;3.3;2.1;;;;;;;;;;;;;
2022/05/10 12:50:56;;;;;;;2;1.9;;;;;;;;;;;;;
2022/05/10 12:53:21;;;;;;;3.7;2.1;;;;;;;;;;;;;
2022/05/10 12:55:46;;;;;;;2.3;2.1;;;;;;;;;;;;;
2022/05/10 12:58:11;;;;;;;2.9;2.2;;;;;;;;;;;;;
2022/05/10 13:00:38;;;;;;;2.4;2.2;;;;;;;;;;;;;
2022/05/10 13:03:01;;;;;;;2.8;2.4;;;;;;;;;;;;;
2022/05/10 13:05:30;;;;;;;2.2;2;;;;;;;;;;;;;
2022/05/10 13:07:55;;;;;;;2.3;2.1;;;;;;;;;;;;;
2022/05/10 13:10:21;;;;;;;3;1.9;;;;;;;;;;;;;
2022/05/10 13:12:46;;;;;;;2.3;2.1;;;;;;;;;;;;;
2022/05/10 13:15:13;;;;;;;3;2.1;;;;;;;;;;;;;
2022/05/10 13:17:39;;;;;;;2.2;1.8;;;;;;;;;;;;;
2022/05/10 13:20:06;;;;;;;2.3;2.1;;;;;;;;;;;;;
2022/05/10 13:22:30;;;;;;;4.1;2.2;;;;;;;;;;;;;
2022/05/10 13:24:55;;;;;;;2.3;2.1;;;;;;;;;;;;;
2022/05/10 13:27:20;;;;;;;3.4;2.3;;;;;;;;;;;;;
2022/05/10 13:29:48;;;;;;;2.4;2.1;;;;;;;;;;;;;
2022/05/10 13:32:10;;;;;;;6;2.3;;;;;;;;;;;;;
2022/05/10 13:34:35;;;;;;;3.3;2.1;;;;;;;;;;;;;
2022/05/10 13:37:01;;;;;;;2.7;2.1;;;;;;;;;;;;;
2022/05/10 13:39:27;;;;;;;2.5;2.3;;;;;;;;;;;;;
2022/05/10 13:41:52;;;;;;;2.6;2;;;;;;;;;;;;;
2022/05/10 13:44:20;;;;;;;2.3;2.1;;;;;;;;;;;;;
2022/05/10 13:46:45;;;;;;;3.5;2.3;;;;;;;;;;;;;
2022/05/10 13:49:11;;;;;;;3.1;2.5;;;;;;;;;;;;;
2022/05/10 13:51:36;;;;;;;5.3;2.3;;;;;;;;;;;;;
2022/05/10 13:54:02;;;;;;;2.5;2.1;;;;;;;;;;;;;
2022/05/10 13:56:28;;;;;;;2.6;2.2;;;;;;;;;;;;;
2022/05/10 13:58:53;;;;;;;3;2.2;;;;;;;;;;;;;
2022/05/10 14:01:18;;;;;;;3.2;2;;;;;;;;;;;;;
2022/05/10 14:03:43;;;;;;;2.5;2.3;;;;;;;;;;;;;
2022/05/10 14:06:08;;;;;;;2.9;2.6;;;;;;;;;;;;;
2022/05/10 14:08:34;;;;;;;2.7;2.2;;;;;;;;;;;;;
2022/05/10 14:11:00;;;;;;;2.5;2.3;;;;;;;;;;;;;
2022/05/10 14:13:24;;;;;;;2.3;2.1;;;;;;;;;;;;;
2022/05/10 14:15:49;;;;;;;3.1;2.3;;;;;;;;;;;;;
2022/05/10 14:18:14;;;;;;;2.4;2.1;;;;;;;;;;;;;
2022/05/10 14:20:41;;;;;;;2.6;2.4;;;;;;;;;;;;;
2022/05/10 14:23:06;;;;;;;3.5;2.6;;;;;;;;;;;;;
2022/05/10 14:25:31;;;;;;;3;2.6;;;;;;;;;;;;;
2022/05/10 14:28:00;;;;;;;3.6;2.4;;;;;;;;;;;;;
2022/05/10 14:30:23;;;;;;;2.8;2.5;;;;;;;;;;;;;
2022/05/10 14:32:50;;;;;;;3;2.3;;;;;;;;;;;;;
2022/05/10 14:35:19;;;;;;;3.9;2.6;;;;;;;;;;;;;
2022/05/10 14:37:45;;;;;;;3.9;2.6;;;;;;;;;;;;;
2022/05/10 14:40:09;;;;;;;2.4;2.2;;;;;;;;;;;;;
2022/05/10 14:42:38;;;;;;;2.5;2.3;;;;;;;;;;;;;
2022/05/10 14:44:59;;;;;;;2.3;2.1;;;;;;;;;;;;;
2022/05/10 14:47:25;;;;;;;3.3;2.4;;;;;;;;;;;;;
2022/05/10 14:49:50;;;;;;;3.5;2.5;;;;;;;;;;;;;
2022/05/10 14:52:15;;;;;;;3.7;2.5;;;;;;;;;;;;;
2022/05/10 14:54:41;;;;;;;3.4;2.4;;;;;;;;;;;;;
2022/05/10 14:57:07;;;;;;;2.6;2.4;;;;;;;;;;;;;
2022/05/10 14:59:51;;;;;;;4.2;2.5;;;;;;;;;;;;;
2022/05/10 15:01:58;;;;;;;2.7;2.4;;;;;;;;;;;;;
2022/05/10 15:04:23;;;;;;;3;2.5;;;;;;;;;;;;;
2022/05/10 15:06:48;;;;;;;3.1;2.5;;;;;;;;;;;;;
2022/05/10 15:09:14;;;;;;;2.9;2.4;;;;;;;;;;;;;
2022/05/10 15:13:03;;;;;;;3.1;2.4;;;;;;;;;;;;;
2022/05/10 15:14:04;;;;;;;3.7;2.4;;;;;;;;;;;;;
2022/05/10 15:16:31;;;;;;;2.7;2.5;;;;;;;;;;;;;
2022/05/10 15:19:02;;;;;;;3.8;2.6;;;;;;;;;;;;;
2022/05/10 15:21:21;;;;;;;2.7;2.5;;;;;;;;;;;;;
2022/05/10 15:23:48;;;;;;;2.5;2.3;;;;;;;;;;;;;
2022/05/10 15:26:13;;;;;;;3.7;2.3;;;;;;;;;;;;;
2022/05/10 15:28:41;;;;;;;4.4;2.5;;;;;;;;;;;;;
2022/05/10 15:31:05;;;;;;;3.9;2.4;;;;;;;;;;;;;
2022/05/10 15:33:32;;;;;;;4.1;2.3;;;;;;;;;;;;;
2022/05/10 15:35:57;;;;;;;2.2;2;;;;;;;;;;;;;
2022/05/10 15:38:24;;;;;;;2.4;2.2;;;;;;;;;;;;;
2022/05/10 15:40:53;;;;;;;3.7;2.2;;;;;;;;;;;;;
2022/05/10 15:43:15;;;;;;;4.1;2.5;;;;;;;;;;;;;
2022/05/10 15:45:40;;;;;;;2.5;2.3;;;;;;;;;;;;;
2022/05/10 15:48:07;;;;;;;3.1;2.8;;;;;;;;;;;;;
2022/05/10 15:50:32;;;;;;;3;2.4;;;;;;;;;;;;;
2022/05/10 15:52:57;;;;;;;3.4;2.6;;;;;;;;;;;;;
2022/05/10 15:55:22;;;;;;;3.5;2.5;;;;;;;;;;;;;
2022/05/10 15:57:47;;;;;;;2.4;2;;;;;;;;;;;;;
2022/05/10 16:00:13;;;;;;;3.1;2.4;;;;;;;;;;;;;
2022/05/10 16:02:39;;;;;;;3.7;2.4;;;;;;;;;;;;;
2022/05/10 16:05:04;;;;;;;3.4;2.6;;;;;;;;;;;;;
2022/05/10 16:07:32;;;;;;;4.4;2.6;;;;;;;;;;;;;
2022/05/10 16:09:56;;;;;;;4.7;2.7;;;;;;;;;;;;;
2022/05/10 16:12:22;;;;;;;3.7;2.6;;;;;;;;;;;;;
2022/05/10 16:14:46;;;;;;;3.7;2.6;;;;;;;;;;;;;
2022/05/10 16:17:12;;;;;;;2.6;2.4;;;;;;;;;;;;;
2022/05/10 16:19:37;;;;;;;3.5;3.2;;;;;;;;;;;;;
2022/05/10 16:22:03;;;;;;;3.6;3.1;;;;;;;;;;;;;
2022/05/10 16:24:28;;;;;;;4.1;3.3;;;;;;;;;;;;;
2022/05/10 16:31:44;;;;;;;4.6;3.2;;;;;;;;;;;;;
2022/05/10 16:34:11;;;;;;;3.3;3;;;;;;;;;;;;;
2022/05/10 16:36:36;;;;;;;3.7;3.2;;;;;;;;;;;;;
2022/05/10 16:39:04;;;;;;;3.1;2.8;;;;;;;;;;;;;
2022/05/10 16:41:29;;;;;;;3.6;2.7;;;;;;;;;;;;;
2022/05/10 16:43:54;;;;;;;3.2;2.9;;;;;;;;;;;;;
2022/05/10 16:46:19;;;;;;;3.6;3.2;;;;;;;;;;;;;
2022/05/10 16:48:50;;;;;;;4.7;3.1;;;;;;;;;;;;;
2022/05/10 16:51:11;;;;;;;2.8;2.6;;;;;;;;;;;;;
2022/05/10 16:53:38;;;;;;;3;2.5;;;;;;;;;;;;;
2022/05/10 16:56:04;;;;;;;3.8;3;;;;;;;;;;;;;
2022/05/10 16:58:32;;;;;;;4;2.9;;;;;;;;;;;;;
2022/05/10 17:00:57;;;;;;;3.3;2.9;;;;;;;;;;;;;
2022/05/10 17:03:24;;;;;;;4;2.8;;;;;;;;;;;;;
2022/05/10 17:05:49;;;;;;;3.2;2.8;;;;;;;;;;;;;
2022/05/10 17:08:20;;;;;;;3.8;2.9;;;;;;;;;;;;;
2022/05/10 17:10:42;;;;;;;3.9;2.6;;;;;;;;;;;;;
2022/05/10 17:13:08;;;;;;;4.1;3;;;;;;;;;;;;;
2022/05/10 17:15:33;;;;;;;3.6;2.6;;;;;;;;;;;;;
2022/05/10 17:17:59;;;;;;;3.4;3;;;;;;;;;;;;;
2022/05/10 17:20:24;;;;;;;4.2;3.2;;;;;;;;;;;;;
2022/05/10 17:22:49;;;;;;;4;3;;;;;;;;;;;;;
2022/05/10 17:25:15;;;;;;;3.7;3.1;;;;;;;;;;;;;
2022/05/10 17:27:56;;;;;;;2.7;2.5;;;;;;;;;;;;;
2022/05/10 17:30:06;;;;;;;4;3.2;;;;;;;;;;;;;
2022/05/10 17:32:33;;;;;;;3.9;3.2;;;;;;;;;;;;;
2022/05/10 17:34:58;;;;;;;3.2;2.9;;;;;;;;;;;;;
2022/05/10 17:37:26;;;;;;;6.5;3.5;;;;;;;;;;;;;
2022/05/10 17:39:51;;;;;;;4.3;3.3;;;;;;;;;;;;;
2022/05/10 17:42:17;;;;;;;3.3;2.9;;;;;;;;;;;;;
2022/05/10 17:44:42;;;;;;;3.7;3;;;;;;;;;;;;;
2022/05/10 17:47:09;;;;;;;5.1;3.5;;;;;;;;;;;;;
2022/05/10 17:49:34;;;;;;;5.7;3.1;;;;;;;;;;;;;
2022/05/10 17:51:59;;;;;;;6.2;3.4;;;;;;;;;;;;;
2022/05/10 17:54:24;;;;;;;5.2;3.4;;;;;;;;;;;;;
2022/05/10 17:56:51;;;;;;;5.5;3.2;;;;;;;;;;;;;
2022/05/10 17:59:16;;;;;;;4.5;3.6;;;;;;;;;;;;;
2022/05/10 18:01:43;;;;;;;6.2;3.5;;;;;;;;;;;;;
2022/05/10 18:04:08;;;;;;;46;7.3;;;;;;;;;;;;;
2022/05/10 18:06:34;;;;;;;12;4.4;;;;;;;;;;;;;
2022/05/10 18:08:59;;;;;;;9.3;3.9;;;;;;;;;;;;;
2022/05/10 18:11:25;;;;;;;6.4;3.8;;;;;;;;;;;;;
2022/05/10 18:13:49;;;;;;;11.3;3.8;;;;;;;;;;;;;
2022/05/10 18:16:17;;;;;;;5;3.4;;;;;;;;;;;;;
2022/05/10 18:18:42;;;;;;;4;3.6;;;;;;;;;;;;;
2022/05/10 18:21:08;;;;;;;5;4.2;;;;;;;;;;;;;
2022/05/10 18:23:32;;;;;;;7.4;4.3;;;;;;;;;;;;;
2022/05/10 18:25:59;;;;;;;5.7;4.8;;;;;;;;;;;;;
2022/05/10 18:28:24;;;;;;;9.6;4.8;;;;;;;;;;;;;
2022/05/10 18:30:50;;;;;;;6.7;3.9;;;;;;;;;;;;;
2022/05/10 18:33:15;;;;;;;4.7;3;;;;;;;;;;;;;
2022/05/10 18:35:45;;;;;;;3.9;3.1;;;;;;;;;;;;;
2022/05/10 18:38:06;;;;;;;2.9;2.6;;;;;;;;;;;;;
2022/05/10 18:40:33;;;;;;;4;3.2;;;;;;;;;;;;;
2022/05/10 18:42:58;;;;;;;6.9;4.2;;;;;;;;;;;;;
2022/05/10 18:45:26;;;;;;;4.7;3.8;;;;;;;;;;;;;
2022/05/10 18:47:51;;;;;;;5.1;3.2;;;;;;;;;;;;;
2022/05/10 18:50:18;;;;;;;4.6;3.6;;;;;;;;;;;;;
2022/05/10 18:52:43;;;;;;;5.4;3.3;;;;;;;;;;;;;
2022/05/10 18:55:08;;;;;;;4;2.9;;;;;;;;;;;;;
2022/05/10 18:57:33;;;;;;;6.2;4;;;;;;;;;;;;;
2022/05/10 18:59:58;;;;;;;8;4.7;;;;;;;;;;;;;
2022/05/10 19:02:24;;;;;;;6.2;5.1;;;;;;;;;;;;;
2022/05/10 19:04:50;;;;;;;4.7;3.6;;;;;;;;;;;;;
2022/05/10 19:07:15;;;;;;;4.5;3.5;;;;;;;;;;;;;
2022/05/10 19:09:41;;;;;;;7;3.9;;;;;;;;;;;;;
2022/05/10 19:12:06;;;;;;;4.7;3.2;;;;;;;;;;;;;
2022/05/10 19:14:32;;;;;;;5.2;3.6;;;;;;;;;;;;;
2022/05/10 19:16:57;;;;;;;5.7;3.2;;;;;;;;;;;;;
2022/05/10 19:19:23;;;;;;;4.4;3.2;;;;;;;;;;;;;
2022/05/10 19:21:48;;;;;;;4.1;3.2;;;;;;;;;;;;;
2022/05/10 19:24:15;;;;;;;3.7;3.1;;;;;;;;;;;;;
2022/05/10 19:26:40;;;;;;;4.8;3.1;;;;;;;;;;;;;
2022/05/10 19:29:06;;;;;;;6.8;4.4;;;;;;;;;;;;;
2022/05/10 19:31:32;;;;;;;5.1;3.7;;;;;;;;;;;;;
2022/05/10 19:33:57;;;;;;;4.3;3.7;;;;;;;;;;;;;
2022/05/10 19:36:22;;;;;;;6.6;4.1;;;;;;;;;;;;;
2022/05/10 19:38:49;;;;;;;6.9;3.8;;;;;;;;;;;;;
2022/05/10 19:41:15;;;;;;;5.3;4;;;;;;;;;;;;;
2022/05/10 19:43:40;;;;;;;6;3.9;;;;;;;;;;;;;
2022/05/10 19:46:06;;;;;;;6.9;3.9;;;;;;;;;;;;;
2022/05/10 19:48:32;;;;;;;8.2;5.2;;;;;;;;;;;;;
2022/05/10 19:50:57;;;;;;;8.2;5.5;;;;;;;;;;;;;
2022/05/10 19:53:23;;;;;;;6.4;4.6;;;;;;;;;;;;;
2022/05/10 19:55:48;;;;;;;7.4;5.3;;;;;;;;;;;;;
2022/05/10 19:58:15;;;;;;;7.6;5.1;;;;;;;;;;;;;
2022/05/10 20:00:40;;;;;;;8.5;5.3;;;;;;;;;;;;;
2022/05/10 20:05:31;;;;;;;5.3;4.3;;;;;;;;;;;;;
2022/05/10 20:07:56;;;;;;;5;3.6;;;;;;;;;;;;;
2022/05/10 20:10:21;;;;;;;5.9;3.5;;;;;;;;;;;;;
2022/05/10 20:12:56;;;;;;;4.5;3.8;;;;;;;;;;;;;
2022/05/10 20:15:23;;;;;;;5.2;3.9;;;;;;;;;;;;;
2022/05/10 20:17:47;;;;;;;6.7;4.1;;;;;;;;;;;;;
2022/05/10 20:20:14;;;;;;;7.6;4.4;;;;;;;;;;;;;
2022/05/10 20:22:39;;;;;;;4.8;4.3;;;;;;;;;;;;;
2022/05/10 20:25:04;;;;;;;9.3;5;;;;;;;;;;;;;